createdAt,value
2019-06-01T00:04:38.670Z,14.10
2019-06-01T00:10:43.027Z,14.00
2019-06-01T00:16:48.028Z,13.90
2019-06-01T00:22:52.330Z,13.80
2019-06-01T00:28:56.555Z,13.80
2019-06-01T00:35:01.108Z,13.80
2019-06-01T00:41:05.579Z,13.60
2019-06-01T00:47:09.941Z,13.50
2019-06-01T00:53:14.163Z,13.40
2019-06-01T00:59:18.381Z,13.40
2019-06-01T01:05:23.358Z,13.40
2019-06-01T01:11:27.679Z,13.50
2019-06-01T01:17:32.075Z,13.40
2019-06-01T01:23:36.380Z,13.50
2019-06-01T01:29:40.740Z,13.40
2019-06-01T01:35:45.047Z,13.30
2019-06-01T01:41:50.024Z,13.30
2019-06-01T01:47:55.057Z,13.30
2019-06-01T01:53:59.387Z,13.30
2019-06-01T02:00:04.176Z,13.20
2019-06-01T02:06:08.633Z,13.20
2019-06-01T02:12:13.031Z,13.10
2019-06-01T02:18:17.250Z,13.00
2019-06-01T02:24:21.583Z,12.90
2019-06-01T02:30:25.853Z,12.90
2019-06-01T02:36:30.068Z,12.90
2019-06-01T02:42:34.326Z,12.90
2019-06-01T02:48:38.637Z,12.70
2019-06-01T02:54:42.834Z,12.60
2019-06-01T03:01:07.078Z,12.70
2019-06-01T03:07:13.456Z,12.60
2019-06-01T03:13:19.544Z,12.40
2019-06-01T03:19:25.993Z,12.40
2019-06-01T03:25:30.301Z,12.40
2019-06-01T03:31:34.593Z,12.30
2019-06-01T03:37:38.844Z,12.20
2019-06-01T03:43:43.130Z,12.20
2019-06-01T03:49:47.330Z,12.10
2019-06-01T03:55:51.657Z,12.20
2019-06-01T04:01:55.890Z,12.20
2019-06-01T04:08:01.267Z,12.20
2019-06-01T04:14:06.171Z,12.20
2019-06-01T04:20:10.603Z,12.30
2019-06-01T04:26:14.896Z,12.50
2019-06-01T04:32:19.249Z,12.90
2019-06-01T04:38:23.473Z,13.10
2019-06-01T04:44:27.765Z,13.30
2019-06-01T04:50:35.549Z,13.60
2019-06-01T04:56:39.919Z,14.20
2019-06-01T05:02:44.226Z,14.80
2019-06-01T05:08:48.545Z,15.70
2019-06-01T05:14:52.819Z,16.60
2019-06-01T05:20:57.221Z,17.30
2019-06-01T05:27:01.472Z,17.80
2019-06-01T05:33:21.373Z,18.50
2019-06-01T05:39:12.321Z,18.80
2019-06-01T05:45:17.181Z,19.10
2019-06-01T05:51:22.981Z,19.70
2019-06-01T05:57:27.341Z,20.20
2019-06-01T06:03:39.918Z,20.90
2019-06-01T06:09:37.600Z,21.30
2019-06-01T06:15:41.890Z,21.90
2019-06-01T06:21:46.092Z,22.40
2019-06-01T06:27:50.740Z,22.60
2019-06-01T06:33:56.998Z,22.80
2019-06-01T06:40:01.148Z,22.80
2019-06-01T06:46:05.409Z,22.80
2019-06-01T06:52:09.638Z,23.30
2019-06-01T06:58:14.103Z,23.80
2019-06-01T07:04:19.267Z,24.00
2019-06-01T07:10:24.245Z,24.40
2019-06-01T07:16:28.540Z,24.50
2019-06-01T07:22:32.749Z,25.20
2019-06-01T07:28:37.084Z,24.80
2019-06-01T07:34:42.790Z,25.50
2019-06-01T07:40:47.283Z,25.30
2019-06-01T07:52:55.092Z,25.70
2019-06-01T07:58:59.332Z,26.30
2019-06-01T08:05:03.534Z,26.20
2019-06-01T08:11:07.773Z,26.70
2019-06-01T08:17:11.975Z,27.10
2019-06-01T08:23:16.623Z,27.20
2019-06-01T08:29:22.507Z,27.30
2019-06-01T08:35:27.017Z,27.40
2019-06-01T08:41:34.003Z,27.50
2019-06-01T08:47:38.363Z,27.30
2019-06-01T08:53:42.589Z,27.90
2019-06-01T08:59:46.846Z,27.60
2019-06-01T09:05:51.041Z,27.90
2019-06-01T09:11:55.437Z,27.40
2019-06-01T09:17:59.657Z,27.70
2019-06-01T09:24:04.019Z,28.20
2019-06-01T09:30:08.831Z,28.10
2019-06-01T09:36:13.086Z,27.50
2019-06-01T09:42:17.527Z,27.10
2019-06-01T09:48:21.735Z,28.10
2019-06-01T09:54:25.922Z,28.20
2019-06-01T10:00:30.388Z,28.30
2019-06-01T10:06:34.751Z,27.60
2019-06-01T10:12:39.174Z,27.00
2019-06-01T10:18:43.381Z,27.60
2019-06-01T10:24:47.665Z,27.90
2019-06-01T10:30:51.860Z,27.60
2019-06-01T10:36:56.336Z,27.30
2019-06-01T10:43:00.624Z,26.50
2019-06-01T10:49:04.858Z,26.80
2019-06-01T10:55:09.059Z,26.90
2019-06-01T11:01:13.482Z,26.10
2019-06-01T11:07:20.441Z,26.40
2019-06-01T11:13:24.868Z,26.10
2019-06-01T11:19:29.077Z,26.10
2019-06-01T11:25:33.453Z,25.90
2019-06-01T11:31:38.319Z,25.50
2019-06-01T11:37:42.571Z,25.60
2019-06-01T11:43:46.809Z,25.70
2019-06-01T11:49:51.008Z,25.40
2019-06-01T11:55:56.519Z,25.20
2019-06-01T12:02:01.051Z,25.50
2019-06-01T12:08:05.238Z,25.10
2019-06-01T12:14:12.596Z,25.10
2019-06-01T12:20:17.234Z,25.10
2019-06-01T12:26:22.304Z,25.00
2019-06-01T12:32:26.535Z,25.30
2019-06-01T12:38:32.393Z,25.00
2019-06-01T12:44:36.674Z,25.40
2019-06-01T12:50:42.114Z,25.40
2019-06-01T12:56:47.726Z,25.20
2019-06-01T13:03:03.492Z,25.20
2019-06-01T13:08:58.537Z,25.20
2019-06-01T13:15:02.796Z,25.10
2019-06-01T13:21:06.977Z,25.50
2019-06-01T13:27:11.271Z,26.40
2019-06-01T13:33:15.572Z,26.90
2019-06-01T13:39:19.743Z,26.20
2019-06-01T13:45:24.031Z,25.50
2019-06-01T13:51:28.241Z,25.80
2019-06-01T13:57:32.559Z,25.90
2019-06-01T14:03:36.752Z,25.90
2019-06-01T14:09:41.018Z,25.50
2019-06-01T14:15:45.511Z,25.50
2019-06-01T14:21:50.469Z,25.30
2019-06-01T14:27:56.442Z,25.80
2019-06-01T14:34:00.825Z,25.80
2019-06-01T14:40:05.520Z,25.50
2019-06-01T14:46:09.783Z,25.60
2019-06-01T14:52:13.968Z,25.90
2019-06-01T14:58:18.201Z,25.90
2019-06-01T15:04:22.547Z,26.10
2019-06-01T15:10:26.824Z,25.50
2019-06-01T15:16:31.012Z,25.80
2019-06-01T15:22:35.299Z,25.70
2019-06-01T15:28:39.517Z,25.70
2019-06-01T15:34:43.970Z,25.50
2019-06-01T15:40:48.164Z,25.40
2019-06-01T15:46:53.736Z,25.40
2019-06-01T15:52:59.231Z,25.50
2019-06-01T15:59:03.642Z,25.60
2019-06-01T16:05:08.225Z,25.60
2019-06-01T16:11:12.431Z,25.40
2019-06-01T16:17:16.767Z,25.50
2019-06-01T16:23:21.042Z,25.70
2019-06-01T16:29:25.271Z,25.80
2019-06-01T16:35:29.672Z,25.80
2019-06-01T16:41:34.037Z,25.70
2019-06-01T16:47:38.262Z,25.50
2019-06-01T16:53:42.908Z,25.70
2019-06-01T16:59:47.207Z,25.50
2019-06-01T17:05:51.542Z,25.50
2019-06-01T17:11:56.658Z,25.60
2019-06-01T17:18:04.813Z,25.60
2019-06-01T17:24:08.153Z,25.40
2019-06-01T17:30:12.502Z,25.40
2019-06-01T17:36:16.714Z,25.40
2019-06-01T17:42:21.042Z,25.60
2019-06-01T17:48:27.035Z,25.60
2019-06-01T17:54:31.556Z,25.50
2019-06-01T18:00:36.094Z,26.30
2019-06-01T18:06:40.302Z,26.20
2019-06-01T18:12:44.972Z,26.00
2019-06-01T18:18:49.242Z,25.80
2019-06-01T18:24:53.469Z,25.50
2019-06-01T18:30:57.746Z,25.50
2019-06-01T18:37:03.163Z,25.40
2019-06-01T18:43:11.936Z,25.50
2019-06-01T18:49:18.272Z,25.20
2019-06-01T18:55:22.307Z,25.00
2019-06-01T19:01:26.668Z,24.90
2019-06-01T19:07:30.945Z,24.80
2019-06-01T19:13:35.186Z,24.60
2019-06-01T19:19:39.443Z,24.50
2019-06-01T19:25:43.989Z,24.30
2019-06-01T19:31:48.244Z,24.00
2019-06-01T19:37:52.535Z,23.80
2019-06-01T19:43:56.784Z,23.80
2019-06-01T19:50:01.065Z,23.70
2019-06-01T19:56:05.378Z,23.60
2019-06-01T20:02:23.180Z,23.50
2019-06-01T20:08:16.252Z,23.40
2019-06-01T20:14:20.557Z,23.20
2019-06-01T20:20:24.835Z,23.00
2019-06-01T20:26:40.438Z,22.80
2019-06-01T20:32:35.022Z,22.60
2019-06-01T20:38:39.247Z,22.40
2019-06-01T20:44:43.590Z,22.20
2019-06-01T20:50:47.916Z,22.10
2019-06-01T20:56:52.238Z,22.00
2019-06-01T21:02:56.414Z,21.80
2019-06-01T21:09:00.640Z,21.70
2019-06-01T21:15:06.380Z,21.60
2019-06-01T21:21:10.695Z,21.40
2019-06-01T21:27:16.486Z,21.40
2019-06-01T21:33:21.717Z,21.40
2019-06-01T21:39:26.842Z,21.30
2019-06-01T21:45:31.096Z,21.30
2019-06-01T21:51:35.443Z,21.20
2019-06-01T21:57:39.667Z,21.00
2019-06-01T22:03:43.974Z,21.00
2019-06-01T22:09:48.174Z,20.90
2019-06-01T22:15:52.510Z,20.70
2019-06-01T22:21:56.730Z,20.70
2019-06-01T22:28:00.999Z,20.60
2019-06-01T22:34:05.992Z,20.50
2019-06-01T22:40:10.501Z,20.40
2019-06-01T22:46:14.773Z,20.20
2019-06-01T22:52:19.110Z,20.10
2019-06-01T22:58:23.411Z,20.00
2019-06-01T23:04:29.137Z,20.00
2019-06-01T23:10:35.453Z,19.90
2019-06-01T23:16:39.462Z,19.80
2019-06-01T23:22:43.892Z,19.70
2019-06-01T23:28:48.213Z,19.70
2019-06-01T23:34:52.471Z,19.60
2019-06-01T23:40:56.683Z,19.50
2019-06-01T23:47:01.078Z,19.40
2019-06-01T23:53:13.509Z,19.40
2019-06-01T23:59:11.193Z,19.30
